Time;durP1;ratioP1;P1;durP2;ratioP2;P2;SDS_P1;SDS_P2;PMS_P1;PMS_P2;Temp;Humidity;BMP_temperature;BMP_pressure;BME280_temperature;BME280_humidity;BME280_pressure;Samples;Min_cycle;Max_cycle;Signal;HPM_P1;HPM_P2
2022/04/02 00:02:07;;;;;;;9.38;4.30;;;;;;;;;;4972859;28;20490;-62
2022/04/02 00:04:32;;;;;;;10.68;4.30;;;;;;;;;;4971675;28;20365;-62
2022/04/02 00:06:58;;;;;;;10.23;4.20;;;;;;;;;;4971324;28;20070;-62
2022/04/02 00:09:23;;;;;;;7.35;3.90;;;;;;;;;;4976549;28;20077;-62
2022/04/02 00:11:49;;;;;;;8.52;3.95;;;;;;;;;;4976499;28;20532;-62
2022/04/02 00:14:15;;;;;;;9.30;4.22;;;;;;;;;;4976763;28;20033;-62
2022/04/02 00:16:40;;;;;;;9.48;3.97;;;;;;;;;;4976879;28;20037;-63
2022/04/02 00:19:06;;;;;;;8.02;3.97;;;;;;;;;;4976499;28;20094;-64
2022/04/02 00:21:32;;;;;;;9.35;4.57;;;;;;;;;;4976780;28;20118;-64
2022/04/02 00:23:57;;;;;;;9.98;3.97;;;;;;;;;;4975775;28;20459;-64
2022/04/02 00:26:23;;;;;;;6.68;3.72;;;;;;;;;;4977261;28;20034;-64
2022/04/02 00:28:50;;;;;;;8.02;4.10;;;;;;;;;;4976479;28;20030;-61
2022/04/02 00:31:17;;;;;;;7.78;3.80;;;;;;;;;;4976979;28;20038;-64
2022/04/02 00:33:45;;;;;;;6.40;3.70;;;;;;;;;;4976544;28;20034;-64
2022/04/02 00:36:11;;;;;;;8.45;3.80;;;;;;;;;;4974686;28;20432;-64
2022/04/02 00:38:39;;;;;;;7.47;3.45;;;;;;;;;;4976208;28;20392;-64
2022/04/02 00:41:05;;;;;;;7.13;3.60;;;;;;;;;;4974573;28;20027;-64
2022/04/02 00:43:36;;;;;;;6.55;3.58;;;;;;;;;;4976142;28;20030;-64
2022/04/02 00:46:05;;;;;;;;;;;;;;;;;;4976174;28;20092;-66
2022/04/02 00:48:31;;;;;;;8.25;3.53;;;;;;;;;;4975983;28;20264;-64
2022/04/02 00:51:00;;;;;;;8.40;3.60;;;;;;;;;;4975565;28;20047;-64
2022/04/02 00:53:32;;;;;;;7.70;2.92;;;;;;;;;;4976172;28;20063;-65
2022/04/02 00:55:59;;;;;;;8.13;3.47;;;;;;;;;;4958342;28;20168;-65
2022/04/02 00:58:24;;;;;;;7.13;3.30;;;;;;;;;;4976186;28;20483;-65
2022/04/02 01:00:50;;;;;;;5.18;2.95;;;;;;;;;;4976195;28;20023;-65
2022/04/02 01:03:16;;;;;;;5.78;2.78;;;;;;;;;;4975122;28;20039;-66
2022/04/02 01:05:42;;;;;;;5.15;2.75;;;;;;;;;;4976094;28;20034;-66
2022/04/02 01:08:08;;;;;;;5.20;3.00;;;;;;;;;;4975492;28;20090;-65
2022/04/02 01:10:41;;;;;;;6.13;2.83;;;;;;;;;;4976078;28;20023;-65
2022/04/02 01:13:08;;;;;;;4.30;2.58;;;;;;;;;;4975276;28;20034;-65
2022/04/02 01:15:35;;;;;;;6.88;2.85;;;;;;;;;;4975854;28;20037;-65
2022/04/02 01:18:00;;;;;;;6.72;2.78;;;;;;;;;;4975679;28;20033;-65
2022/04/02 01:20:29;;;;;;;7.50;3.00;;;;;;;;;;4975496;28;20400;-66
2022/04/02 01:22:55;;;;;;;5.57;2.72;;;;;;;;;;4975220;28;20035;-65
2022/04/02 01:25:21;;;;;;;6.30;3.00;;;;;;;;;;4975799;28;20026;-65
2022/04/02 01:27:46;;;;;;;5.55;2.50;;;;;;;;;;4975888;28;20027;-65
2022/04/02 01:30:14;;;;;;;5.82;2.33;;;;;;;;;;4975187;28;20291;-65
2022/04/02 01:32:40;;;;;;;5.22;2.88;;;;;;;;;;4975620;28;20037;-65
2022/04/02 01:35:08;;;;;;;4.38;2.45;;;;;;;;;;4974589;28;20041;-65
2022/04/02 01:37:34;;;;;;;5.10;2.85;;;;;;;;;;4975100;28;20532;-65
2022/04/02 01:40:00;;;;;;;4.13;2.40;;;;;;;;;;4974639;28;20031;-65
2022/04/02 01:42:26;;;;;;;6.18;2.30;;;;;;;;;;4976252;28;20037;-65
2022/04/02 01:44:52;;;;;;;4.72;2.55;;;;;;;;;;4975135;28;20033;-64
2022/04/02 01:47:21;;;;;;;5.63;2.78;;;;;;;;;;4974660;28;20408;-65
2022/04/02 01:49:47;;;;;;;5.45;2.40;;;;;;;;;;4975086;28;20035;-64
2022/04/02 01:52:15;;;;;;;4.65;2.30;;;;;;;;;;4973502;28;20401;-64
2022/04/02 01:54:40;;;;;;;5.22;2.38;;;;;;;;;;4974805;28;20039;-64
2022/04/02 01:57:06;;;;;;;6.40;2.70;;;;;;;;;;4956983;28;20082;-64
2022/04/02 01:59:31;;;;;;;5.25;2.50;;;;;;;;;;4975148;28;20555;-64
2022/04/02 02:01:57;;;;;;;7.93;2.60;;;;;;;;;;4974428;28;20089;-64
2022/04/02 02:04:23;;;;;;;5.05;2.50;;;;;;;;;;4974794;28;20034;-63
2022/04/02 02:06:48;;;;;;;5.10;2.47;;;;;;;;;;4974649;28;20444;-63
2022/04/02 02:09:14;;;;;;;4.97;2.40;;;;;;;;;;4974051;28;20109;-63
2022/04/02 02:11:41;;;;;;;5.13;2.60;;;;;;;;;;4975253;28;20037;-63
2022/04/02 02:14:07;;;;;;;5.63;2.38;;;;;;;;;;4974240;28;20042;-63
2022/04/02 02:16:33;;;;;;;5.32;2.50;;;;;;;;;;4974725;28;20077;-63
2022/04/02 02:18:58;;;;;;;7.88;2.70;;;;;;;;;;4974092;28;20083;-63
2022/04/02 02:21:24;;;;;;;5.82;2.50;;;;;;;;;;4974718;28;20027;-63
2022/04/02 02:23:49;;;;;;;6.10;2.50;;;;;;;;;;4973998;28;20080;-63
2022/04/02 02:26:15;;;;;;;6.03;2.40;;;;;;;;;;4972859;28;20598;-63
2022/04/02 02:28:41;;;;;;;6.50;2.58;;;;;;;;;;4974821;28;20461;-62
2022/04/02 02:31:07;;;;;;;3.55;2.33;;;;;;;;;;4972183;28;20141;-62
2022/04/02 02:36:17;;;;;;;4.60;2.47;;;;;;;;;;4973811;28;20304;-63
2022/04/02 02:38:43;;;;;;;6.60;2.35;;;;;;;;;;4974471;28;20388;-62
2022/04/02 02:41:10;;;;;;;4.22;2.33;;;;;;;;;;4973932;28;20031;-62
2022/04/02 02:43:36;;;;;;;4.13;2.03;;;;;;;;;;4974079;28;20066;-62
2022/04/02 02:46:02;;;;;;;6.68;2.60;;;;;;;;;;4973626;28;20066;-62
2022/04/02 02:48:27;;;;;;;4.95;2.30;;;;;;;;;;4974208;28;20075;-62
2022/04/02 02:50:52;;;;;;;3.42;2.00;;;;;;;;;;4973830;28;20074;-61
2022/04/02 02:53:18;;;;;;;5.90;2.47;;;;;;;;;;4973837;28;20126;-61
2022/04/02 02:55:44;;;;;;;5.07;2.47;;;;;;;;;;4973845;28;20030;-61
2022/04/02 02:58:10;;;;;;;5.63;2.35;;;;;;;;;;4973357;28;20129;-62
2022/04/02 03:00:35;;;;;;;4.43;2.40;;;;;;;;;;4973931;28;20041;-61
2022/04/02 03:03:01;;;;;;;5.65;2.20;;;;;;;;;;4955889;28;20125;-62
2022/04/02 03:05:26;;;;;;;4.82;2.35;;;;;;;;;;4973788;28;20034;-61
2022/04/02 03:07:51;;;;;;;4.85;2.22;;;;;;;;;;4973824;28;20036;-61
2022/04/02 03:10:29;;;;;;;5.10;2.25;;;;;;;;;;4973142;28;20038;-61
2022/04/02 03:12:59;;;;;;;4.65;2.30;;;;;;;;;;4972255;28;20041;-61
2022/04/02 03:15:25;;;;;;;6.32;2.30;;;;;;;;;;4973551;28;20031;-61
2022/04/02 03:17:52;;;;;;;4.10;2.15;;;;;;;;;;4973699;28;20057;-62
2022/04/02 03:20:21;;;;;;;3.97;2.45;;;;;;;;;;4971658;28;20388;-62
2022/04/02 03:22:48;;;;;;;6.50;2.17;;;;;;;;;;4973462;28;20034;-62
2022/04/02 03:25:23;;;;;;;3.55;1.98;;;;;;;;;;4972583;28;20431;-62
2022/04/02 03:27:49;;;;;;;3.92;2.13;;;;;;;;;;4973675;28;20105;-62
2022/04/02 03:30:18;;;;;;;3.75;2.17;;;;;;;;;;4972922;28;20075;-62
2022/04/02 03:32:43;;;;;;;5.93;2.40;;;;;;;;;;4973474;28;20457;-62
2022/04/02 03:35:09;;;;;;;4.95;2.38;;;;;;;;;;4972705;28;20031;-62
2022/04/02 03:37:38;;;;;;;3.75;2.20;;;;;;;;;;4973459;28;20571;-62
2022/04/02 03:40:07;;;;;;;5.38;2.13;;;;;;;;;;4972687;28;20027;-62
2022/04/02 03:42:33;;;;;;;5.05;2.10;;;;;;;;;;4972525;28;20452;-62
2022/04/02 03:44:59;;;;;;;5.32;2.40;;;;;;;;;;4973325;28;20121;-62
2022/04/02 03:47:24;;;;;;;6.05;2.30;;;;;;;;;;4972502;28;20109;-63
2022/04/02 03:49:51;;;;;;;4.55;2.20;;;;;;;;;;4972995;28;20031;-62
2022/04/02 03:52:17;;;;;;;5.63;2.45;;;;;;;;;;4973150;28;20118;-63
2022/04/02 03:54:42;;;;;;;3.80;2.13;;;;;;;;;;4973211;28;20034;-63
2022/04/02 03:57:12;;;;;;;3.28;1.83;;;;;;;;;;4972602;28;20089;-63
2022/04/02 03:59:40;;;;;;;4.05;2.13;;;;;;;;;;4973049;28;20511;-64
2022/04/02 04:02:06;;;;;;;4.63;2.30;;;;;;;;;;4972787;28;20465;-63
2022/04/02 04:04:32;;;;;;;4.20;2.22;;;;;;;;;;4973218;28;20031;-63
2022/04/02 04:06:58;;;;;;;3.95;2.40;;;;;;;;;;4972140;28;20125;-63
2022/04/02 04:09:24;;;;;;;4.10;2.08;;;;;;;;;;4972702;28;20118;-63
2022/04/02 04:11:50;;;;;;;4.97;2.65;;;;;;;;;;4973612;28;20119;-64
2022/04/02 04:14:16;;;;;;;5.00;2.40;;;;;;;;;;4972620;28;20035;-63
2022/04/02 04:16:42;;;;;;;3.67;2.15;;;;;;;;;;4956036;28;20034;-63
2022/04/02 04:19:08;;;;;;;5.10;2.35;;;;;;;;;;4972711;28;20042;-63
2022/04/02 04:21:34;;;;;;;5.05;2.10;;;;;;;;;;4973137;28;20026;-63
2022/04/02 04:24:00;;;;;;;5.43;2.40;;;;;;;;;;4973027;28;20117;-64
2022/04/02 04:26:26;;;;;;;4.60;2.20;;;;;;;;;;4972606;28;20101;-63
2022/04/02 04:28:51;;;;;;;6.32;2.33;;;;;;;;;;4972123;28;20182;-63
2022/04/02 04:31:18;;;;;;;4.95;2.35;;;;;;;;;;4972602;28;20472;-64
2022/04/02 04:33:47;;;;;;;4.60;2.20;;;;;;;;;;4973130;28;20038;-64
2022/04/02 04:36:14;;;;;;;4.85;2.80;;;;;;;;;;4972364;28;20038;-64
2022/04/02 04:38:41;;;;;;;5.63;2.15;;;;;;;;;;4973129;28;20026;-64
2022/04/02 04:41:06;;;;;;;5.45;2.40;;;;;;;;;;4972522;28;20137;-64
2022/04/02 04:43:32;;;;;;;4.90;2.40;;;;;;;;;;4972998;28;20434;-64
2022/04/02 04:45:57;;;;;;;4.07;2.25;;;;;;;;;;4972924;28;20532;-64
2022/04/02 04:48:23;;;;;;;6.35;2.63;;;;;;;;;;4971215;28;20031;-64
2022/04/02 04:50:49;;;;;;;3.33;2.10;;;;;;;;;;4973215;28;20058;-64
2022/04/02 04:53:14;;;;;;;4.95;2.47;;;;;;;;;;4972174;28;20062;-64
2022/04/02 04:55:40;;;;;;;3.97;2.50;;;;;;;;;;4976276;28;20090;-64
2022/04/02 04:58:05;;;;;;;5.20;2.58;;;;;;;;;;4975824;28;20031;-64
2022/04/02 05:00:31;;;;;;;7.28;2.55;;;;;;;;;;4976663;28;20114;-64
2022/04/02 05:02:58;;;;;;;5.25;2.45;;;;;;;;;;4976082;28;20114;-64
2022/04/02 05:05:23;;;;;;;4.07;2.22;;;;;;;;;;4975495;28;20041;-64
2022/04/02 05:07:49;;;;;;;5.82;2.65;;;;;;;;;;4976499;28;20027;-64
2022/04/02 05:10:15;;;;;;;7.22;2.63;;;;;;;;;;4975847;28;20034;-64
2022/04/02 05:12:40;;;;;;;4.70;2.53;;;;;;;;;;4975031;28;20027;-64
2022/04/02 05:15:08;;;;;;;4.75;2.40;;;;;;;;;;4975820;28;20147;-65
2022/04/02 05:17:35;;;;;;;4.85;2.67;;;;;;;;;;4976227;28;20031;-65
2022/04/02 05:20:00;;;;;;;5.10;2.55;;;;;;;;;;4976228;28;20031;-65
2022/04/02 05:22:26;;;;;;;6.47;2.60;;;;;;;;;;4975557;28;20195;-66
2022/04/02 05:24:51;;;;;;;6.45;2.60;;;;;;;;;;4975792;28;20031;-65
2022/04/02 05:27:17;;;;;;;6.32;2.50;;;;;;;;;;4975400;28;20026;-65
2022/04/02 05:29:43;;;;;;;5.00;2.40;;;;;;;;;;4974762;28;20038;-65
2022/04/02 05:32:08;;;;;;;6.45;2.80;;;;;;;;;;4975331;28;20118;-65
2022/04/02 05:34:34;;;;;;;6.25;2.42;;;;;;;;;;4976004;28;20118;-66
2022/04/02 05:36:59;;;;;;;3.38;2.10;;;;;;;;;;4975937;28;20366;-66
2022/04/02 05:39:25;;;;;;;4.95;2.45;;;;;;;;;;4975099;28;20105;-66
2022/04/02 05:41:51;;;;;;;4.85;2.38;;;;;;;;;;4975793;28;20054;-66
2022/04/02 05:44:17;;;;;;;3.58;2.40;;;;;;;;;;4974758;28;20372;-65
2022/04/02 05:46:42;;;;;;;5.30;2.58;;;;;;;;;;4975776;28;20037;-66
2022/04/02 05:49:08;;;;;;;6.82;2.70;;;;;;;;;;4975618;28;20118;-66
2022/04/02 05:51:33;;;;;;;4.53;2.42;;;;;;;;;;4975622;28;20495;-66
2022/04/02 05:53:59;;;;;;;5.07;2.40;;;;;;;;;;4975508;28;20066;-66
2022/04/02 05:56:26;;;;;;;5.03;3.15;;;;;;;;;;4974359;28;20027;-67
2022/04/02 05:58:52;;;;;;;4.95;2.28;;;;;;;;;;4975649;28;20078;-67
2022/04/02 06:01:18;;;;;;;4.82;2.20;;;;;;;;;;4974502;28;20034;-66
2022/04/02 06:03:43;;;;;;;5.00;2.42;;;;;;;;;;4975234;28;20388;-65
2022/04/02 06:06:09;;;;;;;5.90;2.83;;;;;;;;;;4974117;28;20453;-64
2022/04/02 06:08:35;;;;;;;3.75;2.17;;;;;;;;;;4975064;28;20031;-66
2022/04/02 06:11:01;;;;;;;5.70;2.70;;;;;;;;;;4974890;28;20135;-66
2022/04/02 06:13:27;;;;;;;4.75;2.58;;;;;;;;;;4974653;28;20081;-66
2022/04/02 06:15:52;;;;;;;5.45;2.53;;;;;;;;;;4974953;28;20034;-66
2022/04/02 06:18:18;;;;;;;5.50;2.75;;;;;;;;;;4974186;28;20089;-65
2022/04/02 06:20:48;;;;;;;4.07;2.55;;;;;;;;;;4974788;28;20026;-66
2022/04/02 06:23:14;;;;;;;4.47;2.57;;;;;;;;;;4941231;28;20114;-65
2022/04/02 06:25:40;;;;;;;4.70;2.40;;;;;;;;;;4974755;28;20256;-66
2022/04/02 06:28:05;;;;;;;5.18;2.47;;;;;;;;;;4974413;28;20026;-67
2022/04/02 06:30:31;;;;;;;5.53;2.45;;;;;;;;;;4974213;28;20066;-67
2022/04/02 06:32:56;;;;;;;6.28;2.70;;;;;;;;;;4974524;28;20035;-65
2022/04/02 06:35:23;;;;;;;6.35;2.75;;;;;;;;;;4974091;28;20027;-65
2022/04/02 06:37:48;;;;;;;4.70;2.55;;;;;;;;;;4973668;28;20404;-65
2022/04/02 06:40:14;;;;;;;5.35;2.55;;;;;;;;;;4973998;28;20027;-65
2022/04/02 06:42:39;;;;;;;3.78;2.58;;;;;;;;;;4974658;28;20038;-66
2022/04/02 06:45:05;;;;;;;5.03;2.47;;;;;;;;;;4974409;28;20062;-66
2022/04/02 06:47:31;;;;;;;5.05;2.58;;;;;;;;;;4974006;28;20489;-65
2022/04/02 06:49:58;;;;;;;6.38;2.92;;;;;;;;;;4974297;28;20353;-65
2022/04/02 06:52:24;;;;;;;4.90;2.63;;;;;;;;;;4972697;28;20038;-65
2022/04/02 06:54:50;;;;;;;5.95;2.80;;;;;;;;;;4974267;28;20506;-66
2022/04/02 06:57:19;;;;;;;5.88;2.95;;;;;;;;;;4973821;28;20033;-65
2022/04/02 06:59:45;;;;;;;5.18;2.63;;;;;;;;;;4974548;28;20055;-65
2022/04/02 07:02:10;;;;;;;5.10;2.63;;;;;;;;;;4973204;28;20109;-66
2022/04/02 07:04:36;;;;;;;5.40;2.83;;;;;;;;;;4973385;28;20049;-65
2022/04/02 07:07:01;;;;;;;5.38;2.80;;;;;;;;;;4972583;28;20034;-65
2022/04/02 07:09:27;;;;;;;8.32;2.90;;;;;;;;;;4973538;28;20027;-65
2022/04/02 07:11:52;;;;;;;4.85;2.90;;;;;;;;;;4972403;28;20034;-64
2022/04/02 07:14:18;;;;;;;6.07;3.10;;;;;;;;;;4973307;28;20038;-64
2022/04/02 07:16:43;;;;;;;6.88;2.90;;;;;;;;;;4973709;28;20066;-64
2022/04/02 07:19:10;;;;;;;4.95;2.80;;;;;;;;;;4973971;28;20449;-65
2022/04/02 07:21:36;;;;;;;8.15;3.30;;;;;;;;;;4973367;28;20065;-64
2022/04/02 07:24:02;;;;;;;5.10;2.78;;;;;;;;;;4973599;28;20125;-64
2022/04/02 07:26:32;;;;;;;5.72;2.95;;;;;;;;;;4973455;28;20027;-64
2022/04/02 07:28:59;;;;;;;6.05;2.90;;;;;;;;;;4973748;28;20054;-64
2022/04/02 07:31:24;;;;;;;7.30;3.22;;;;;;;;;;4973098;28;20030;-64
2022/04/02 07:33:50;;;;;;;5.45;2.80;;;;;;;;;;4973800;28;20041;-64
2022/04/02 07:36:35;;;;;;;5.15;2.63;;;;;;;;;;4972696;28;20034;-64
2022/04/02 07:39:13;;;;;;;5.53;2.60;;;;;;;;;;4973797;28;20160;-63
2022/04/02 07:42:12;;;;;;;4.25;2.72;;;;;;;;;;4971506;28;20035;-63
2022/04/02 07:45:03;;;;;;;5.57;2.83;;;;;;;;;;4972707;28;20054;-63
2022/04/02 07:47:36;;;;;;;7.38;2.95;;;;;;;;;;4971681;28;20038;-63
2022/04/02 07:50:13;;;;;;;8.77;2.70;;;;;;;;;;4973054;28;20057;-64
2022/04/02 07:52:43;;;;;;;5.32;2.90;;;;;;;;;;4972898;28;20066;-64
2022/04/02 07:55:09;;;;;;;6.43;2.90;;;;;;;;;;4973455;28;20089;-64
2022/04/02 07:57:39;;;;;;;6.10;2.83;;;;;;;;;;4972860;28;20031;-64
2022/04/02 08:00:07;;;;;;;6.43;2.90;;;;;;;;;;4973516;28;20023;-65
2022/04/02 08:02:38;;;;;;;5.80;3.05;;;;;;;;;;4955881;28;20179;-64
2022/04/02 08:05:10;;;;;;;7.63;3.05;;;;;;;;;;4973272;28;20090;-64
2022/04/02 08:07:44;;;;;;;7.78;2.85;;;;;;;;;;4972735;28;20320;-65
2022/04/02 08:10:12;;;;;;;5.90;2.78;;;;;;;;;;4972292;28;20453;-65
2022/04/02 08:12:39;;;;;;;4.88;2.83;;;;;;;;;;4972690;28;20035;-65
2022/04/02 08:15:07;;;;;;;4.72;2.75;;;;;;;;;;4973117;28;20038;-65
2022/04/02 08:17:33;;;;;;;6.97;3.00;;;;;;;;;;4972578;28;20086;-66
2022/04/02 08:20:00;;;;;;;5.40;3.20;;;;;;;;;;4973600;28;20373;-66
2022/04/02 08:22:27;;;;;;;6.00;3.22;;;;;;;;;;4972621;28;20096;-65
2022/04/02 08:24:54;;;;;;;5.57;2.90;;;;;;;;;;4973045;28;20042;-65
2022/04/02 08:27:32;;;;;;;7.32;3.47;;;;;;;;;;4972458;28;20037;-64
2022/04/02 08:30:12;;;;;;;6.45;2.97;;;;;;;;;;4975965;28;20035;-66
2022/04/02 08:32:55;;;;;;;4.72;3.10;;;;;;;;;;4976203;28;20252;-64
2022/04/02 08:35:42;;;;;;;5.68;2.70;;;;;;;;;;4975053;28;20062;-65
2022/04/02 08:38:17;;;;;;;5.80;3.28;;;;;;;;;;4976735;28;20034;-65
2022/04/02 08:41:07;;;;;;;5.22;3.15;;;;;;;;;;4976280;28;20558;-64
2022/04/02 08:43:48;;;;;;;6.07;3.30;;;;;;;;;;4974827;28;20122;-63
2022/04/02 08:46:25;;;;;;;6.90;3.05;;;;;;;;;;4975457;28;20125;-64
2022/04/02 08:48:59;;;;;;;5.57;2.97;;;;;;;;;;4976699;28;20034;-64
2022/04/02 08:51:45;;;;;;;6.63;3.13;;;;;;;;;;4975622;28;20039;-63
2022/04/02 08:54:25;;;;;;;6.45;3.35;;;;;;;;;;4976850;28;20038;-64
2022/04/02 08:57:10;;;;;;;6.72;3.50;;;;;;;;;;4959053;28;20026;-63
2022/04/02 08:59:40;;;;;;;8.45;3.63;;;;;;;;;;4974456;28;20039;-63
2022/04/02 09:02:24;;;;;;;6.03;3.37;;;;;;;;;;4976506;28;20035;-63
2022/04/02 09:05:22;;;;;;;8.25;3.80;;;;;;;;;;4976334;28;20027;-64
2022/04/02 09:07:56;;;;;;;5.95;3.58;;;;;;;;;;4976401;28;20496;-65
2022/04/02 09:10:55;;;;;;;7.53;4.10;;;;;;;;;;4975574;28;20468;-63
2022/04/02 09:13:26;;;;;;;8.80;4.13;;;;;;;;;;4975569;28;20094;-64
2022/04/02 09:16:04;;;;;;;7.55;4.10;;;;;;;;;;4975903;28;20457;-64
2022/04/02 09:18:33;;;;;;;6.00;3.70;;;;;;;;;;4975504;28;20115;-64
2022/04/02 09:21:08;;;;;;;7.93;3.80;;;;;;;;;;4976062;28;20037;-64
2022/04/02 09:23:56;;;;;;;5.93;3.30;;;;;;;;;;4973873;28;20081;-63
2022/04/02 09:26:49;;;;;;;8.23;3.97;;;;;;;;;;4975318;28;20053;-63
2022/04/02 09:29:16;;;;;;;6.95;4.00;;;;;;;;;;4975708;28;20480;-64
2022/04/02 09:31:41;;;;;;;8.32;4.38;;;;;;;;;;4975253;28;20044;-64
2022/04/02 09:34:28;;;;;;;8.50;4.18;;;;;;;;;;4974807;28;20129;-64
2022/04/02 09:37:02;;;;;;;9.02;4.20;;;;;;;;;;4975544;28;20035;-63
2022/04/02 09:39:54;;;;;;;8.82;4.00;;;;;;;;;;4975153;28;20089;-63
2022/04/02 09:42:41;;;;;;;6.38;3.67;;;;;;;;;;4975748;28;20038;-66
2022/04/02 09:45:21;;;;;;;7.80;3.50;;;;;;;;;;4974303;28;20023;-65
2022/04/02 09:48:20;;;;;;;6.60;3.40;;;;;;;;;;4974744;28;20497;-64
2022/04/02 09:50:49;;;;;;;7.25;3.58;;;;;;;;;;4974837;28;20126;-65
2022/04/02 09:53:26;;;;;;;5.63;3.53;;;;;;;;;;4975599;28;20054;-64
2022/04/02 09:56:22;;;;;;;8.10;3.72;;;;;;;;;;4973919;28;20477;-64
2022/04/02 09:59:15;;;;;;;6.20;3.40;;;;;;;;;;4975549;28;20030;-64
2022/04/02 10:01:43;;;;;;;7.72;3.25;;;;;;;;;;4974567;28;20031;-65
2022/04/02 10:04:08;;;;;;;6.68;3.63;;;;;;;;;;4973974;28;20081;-65
2022/04/02 10:06:41;;;;;;;7.25;3.53;;;;;;;;;;4974635;28;20484;-65
2022/04/02 10:09:14;;;;;;;6.28;3.50;;;;;;;;;;4974988;28;20038;-65
2022/04/02 10:11:44;;;;;;;6.22;3.58;;;;;;;;;;4974354;28;20031;-65
2022/04/02 10:14:09;;;;;;;5.63;3.60;;;;;;;;;;4975177;28;20134;-65
2022/04/02 10:16:35;;;;;;;6.30;3.38;;;;;;;;;;4974256;28;20512;-65
2022/04/02 10:19:07;;;;;;;5.45;3.55;;;;;;;;;;4974965;28;20022;-66
2022/04/02 10:21:36;;;;;;;7.80;3.75;;;;;;;;;;4973669;28;20392;-65
2022/04/02 10:24:22;;;;;;;5.70;3.33;;;;;;;;;;4974759;28;20073;-66
2022/04/02 10:26:53;;;;;;;5.88;3.67;;;;;;;;;;4974746;28;20037;-65
2022/04/02 10:29:51;;;;;;;6.63;3.75;;;;;;;;;;4975451;28;20027;-65
2022/04/02 10:32:53;;;;;;;8.57;3.50;;;;;;;;;;4933867;28;20089;-66
2022/04/02 10:35:22;;;;;;;7.72;4.45;;;;;;;;;;4877361;29;20052;-65
2022/04/02 10:38:09;;;;;;;8.52;4.00;;;;;;;;;;4956261;28;20445;-65
2022/04/02 10:40:45;;;;;;;6.43;3.83;;;;;;;;;;4973944;28;20089;-65
2022/04/02 10:43:30;;;;;;;6.40;3.88;;;;;;;;;;4974139;28;20384;-65
2022/04/02 10:45:57;;;;;;;7.28;3.70;;;;;;;;;;4974400;28;20034;-65
2022/04/02 10:48:34;;;;;;;6.75;3.88;;;;;;;;;;4974158;28;20507;-66
2022/04/02 10:51:01;;;;;;;5.93;3.50;;;;;;;;;;4973965;28;20054;-66
2022/04/02 10:53:31;;;;;;;6.32;3.58;;;;;;;;;;4973712;28;20421;-66
2022/04/02 10:56:00;;;;;;;6.05;3.47;;;;;;;;;;4974028;28;20034;-66
2022/04/02 10:58:31;;;;;;;10.98;3.72;;;;;;;;;;4974331;28;20039;-65
2022/04/02 11:00:59;;;;;;;6.25;3.80;;;;;;;;;;4974175;28;20030;-66
2022/04/02 11:03:36;;;;;;;6.13;3.70;;;;;;;;;;4956641;28;20038;-66
2022/04/02 11:06:02;;;;;;;7.47;3.47;;;;;;;;;;4957009;28;20030;-66
2022/04/02 11:08:31;;;;;;;5.68;3.72;;;;;;;;;;4955810;28;20404;-66
2022/04/02 11:11:16;;;;;;;5.55;3.50;;;;;;;;;;4974181;28;20118;-66
2022/04/02 11:13:43;;;;;;;8.57;3.72;;;;;;;;;;4973287;28;20472;-66
2022/04/02 11:16:23;;;;;;;6.82;3.85;;;;;;;;;;4973938;28;20465;-66
2022/04/02 11:21:53;;;;;;;5.82;3.70;;;;;;;;;;4973530;28;20057;-66
2022/04/02 11:24:25;;;;;;;6.35;3.70;;;;;;;;;;4973903;28;20034;-66
2022/04/02 11:26:53;;;;;;;10.13;4.40;;;;;;;;;;4973578;28;20031;-66
2022/04/02 11:29:23;;;;;;;7.68;4.07;;;;;;;;;;4972632;28;20062;-66
2022/04/02 11:31:49;;;;;;;6.90;3.97;;;;;;;;;;4955788;28;20042;-66
2022/04/02 11:34:20;;;;;;;7.97;4.43;;;;;;;;;;4972206;28;20034;-67
2022/04/02 11:36:47;;;;;;;7.30;4.15;;;;;;;;;;4972806;28;20081;-66
2022/04/02 11:39:29;;;;;;;7.75;4.20;;;;;;;;;;4973520;28;20033;-65
2022/04/02 11:41:58;;;;;;;6.43;3.90;;;;;;;;;;4973635;28;20046;-66
2022/04/02 11:44:36;;;;;;;6.97;4.10;;;;;;;;;;4973496;28;20069;-66
2022/04/02 11:47:07;;;;;;;7.30;4.55;;;;;;;;;;4973425;28;20035;-66
2022/04/02 11:49:36;;;;;;;7.07;3.90;;;;;;;;;;4972887;28;20034;-66
2022/04/02 11:52:03;;;;;;;7.95;4.20;;;;;;;;;;4974325;28;20047;-67
2022/04/02 11:54:29;;;;;;;8.20;4.65;;;;;;;;;;4973617;28;20122;-66
2022/04/02 11:57:11;;;;;;;8.73;4.10;;;;;;;;;;4973190;28;20058;-66
2022/04/02 11:59:48;;;;;;;7.40;4.13;;;;;;;;;;4972577;28;20031;-68
2022/04/02 12:02:34;;;;;;;7.43;4.07;;;;;;;;;;4973530;28;20389;-66
2022/04/02 12:05:00;;;;;;;7.60;4.38;;;;;;;;;;4971574;28;20035;-67
2022/04/02 12:07:38;;;;;;;7.50;4.13;;;;;;;;;;4973339;28;20453;-67
2022/04/02 12:10:04;;;;;;;7.35;4.30;;;;;;;;;;4973503;28;20034;-66
2022/04/02 12:12:31;;;;;;;8.40;4.68;;;;;;;;;;4973120;28;20027;-66
2022/04/02 12:15:08;;;;;;;6.38;4.15;;;;;;;;;;4973809;28;20070;-66
2022/04/02 12:17:35;;;;;;;7.00;4.15;;;;;;;;;;4972563;28;20456;-66
2022/04/02 12:20:00;;;;;;;7.10;4.00;;;;;;;;;;4973257;28;20031;-66
2022/04/02 12:22:31;;;;;;;8.45;3.92;;;;;;;;;;4972948;28;20027;-67
2022/04/02 12:24:59;;;;;;;6.57;4.07;;;;;;;;;;4972906;28;20030;-66
2022/04/02 12:27:33;;;;;;;7.82;3.90;;;;;;;;;;4973121;28;20131;-66
2022/04/02 12:30:01;;;;;;;6.18;3.88;;;;;;;;;;4973522;28;20027;-67
2022/04/02 12:32:47;;;;;;;8.02;4.10;;;;;;;;;;4973232;28;20027;-66
2022/04/02 12:35:25;;;;;;;5.32;3.58;;;;;;;;;;4972765;28;20039;-66
2022/04/02 12:37:57;;;;;;;8.48;3.90;;;;;;;;;;4971163;28;20080;-67
2022/04/02 12:40:27;;;;;;;8.18;3.70;;;;;;;;;;4971833;28;20353;-66
2022/04/02 12:43:07;;;;;;;11.45;3.70;;;;;;;;;;4972853;28;20120;-66
2022/04/02 12:45:34;;;;;;;5.68;3.50;;;;;;;;;;4973056;28;20027;-67
2022/04/02 12:48:17;;;;;;;7.40;3.80;;;;;;;;;;4972662;28;20053;-67
2022/04/02 12:50:49;;;;;;;5.88;3.85;;;;;;;;;;4970985;28;20515;-67
2022/04/02 12:53:30;;;;;;;5.57;3.47;;;;;;;;;;4971811;28;20127;-67
2022/04/02 12:55:56;;;;;;;5.20;3.55;;;;;;;;;;4971846;28;20026;-67
2022/04/02 12:58:43;;;;;;;6.95;3.88;;;;;;;;;;4972834;28;20038;-67
2022/04/02 13:01:32;;;;;;;6.03;3.70;;;;;;;;;;4972586;28;20404;-67
2022/04/02 13:03:59;;;;;;;4.60;3.20;;;;;;;;;;4972246;28;20038;-67
2022/04/02 13:06:28;;;;;;;5.47;3.10;;;;;;;;;;4972914;28;20031;-67
2022/04/02 13:09:06;;;;;;;5.68;3.33;;;;;;;;;;4972207;28;20283;-67
2022/04/02 13:11:52;;;;;;;4.68;2.90;;;;;;;;;;4973039;28;20046;-67
2022/04/02 13:14:26;;;;;;;4.70;2.90;;;;;;;;;;4957014;28;20113;-66
2022/04/02 13:17:06;;;;;;;7.72;3.33;;;;;;;;;;4975326;28;20069;-66
2022/04/02 13:22:41;;;;;;;4.65;2.95;;;;;;;;;;4975402;28;20093;-66
2022/04/02 13:25:16;;;;;;;5.22;3.17;;;;;;;;;;4975774;28;20481;-66
2022/04/02 13:27:53;;;;;;;4.38;2.92;;;;;;;;;;4974780;28;20030;-66
2022/04/02 13:30:23;;;;;;;4.47;2.80;;;;;;;;;;4975797;28;20396;-66
2022/04/02 13:33:25;;;;;;;5.00;3.00;;;;;;;;;;4975335;28;20023;-66
2022/04/02 13:36:00;;;;;;;4.65;2.70;;;;;;;;;;4973955;28;20077;-67
2022/04/02 13:38:29;;;;;;;4.50;2.90;;;;;;;;;;4975941;28;20070;-66
2022/04/02 13:41:01;;;;;;;3.72;2.75;;;;;;;;;;4974855;28;20373;-66
2022/04/02 13:43:35;;;;;;;3.85;2.53;;;;;;;;;;4975869;28;20125;-67
2022/04/02 13:46:11;;;;;;;5.43;2.42;;;;;;;;;;4974913;28;20031;-67
2022/04/02 13:48:57;;;;;;;3.65;2.28;;;;;;;;;;4975403;28;20057;-66
2022/04/02 13:51:39;;;;;;;2.67;2.15;;;;;;;;;;4958789;28;20517;-67
2022/04/02 13:54:08;;;;;;;4.05;2.30;;;;;;;;;;4974232;28;20031;-66
2022/04/02 13:56:38;;;;;;;4.25;2.30;;;;;;;;;;4975011;28;20515;-66
2022/04/02 13:59:11;;;;;;;4.32;2.55;;;;;;;;;;4975203;28;20495;-67
2022/04/02 14:01:40;;;;;;;4.43;2.40;;;;;;;;;;4974901;28;20031;-65
2022/04/02 14:04:12;;;;;;;4.30;2.00;;;;;;;;;;4973829;28;20034;-66
2022/04/02 14:06:40;;;;;;;3.55;2.22;;;;;;;;;;4957580;28;20062;-65
2022/04/02 14:09:10;;;;;;;3.58;2.30;;;;;;;;;;4975403;28;20473;-67
2022/04/02 14:11:38;;;;;;;3.13;2.00;;;;;;;;;;4975146;28;20023;-67
2022/04/02 14:14:06;;;;;;;3.30;2.13;;;;;;;;;;4975303;28;20442;-65
2022/04/02 14:16:33;;;;;;;2.83;2.05;;;;;;;;;;4973218;28;20054;-66
2022/04/02 14:19:10;;;;;;;3.10;2.10;;;;;;;;;;4973152;28;20183;-66
2022/04/02 14:21:37;;;;;;;3.00;2.00;;;;;;;;;;4975239;28;20373;-66
2022/04/02 14:24:28;;;;;;;3.33;2.20;;;;;;;;;;4974057;28;20078;-66
2022/04/02 14:27:05;;;;;;;3.47;2.10;;;;;;;;;;4973169;28;20034;-66
2022/04/02 14:29:48;;;;;;;3.40;2.30;;;;;;;;;;4976188;28;20043;-67
2022/04/02 14:32:47;;;;;;;3.28;2.05;;;;;;;;;;4973456;28;20030;-66
2022/04/02 14:35:38;;;;;;;3.40;2.30;;;;;;;;;;4974616;28;20038;-66
2022/04/02 14:38:34;;;;;;;5.43;2.22;;;;;;;;;;4973867;28;20031;-66
2022/04/02 14:41:37;;;;;;;3.45;2.10;;;;;;;;;;4974157;28;20034;-67
2022/04/02 14:44:30;;;;;;;3.83;2.20;;;;;;;;;;4973940;28;20034;-67
2022/04/02 14:47:32;;;;;;;4.10;2.05;;;;;;;;;;4972816;28;20423;-66
2022/04/02 14:50:25;;;;;;;2.70;2.00;;;;;;;;;;4973485;28;20059;-66
2022/04/02 14:52:59;;;;;;;2.97;2.10;;;;;;;;;;4972248;28;20092;-66
2022/04/02 14:55:45;;;;;;;4.07;1.95;;;;;;;;;;4974248;28;20039;-66
2022/04/02 14:58:13;;;;;;;3.38;2.30;;;;;;;;;;4974161;28;20042;-66
2022/04/02 15:00:57;;;;;;;3.30;2.13;;;;;;;;;;4974571;28;20033;-66
2022/04/02 15:03:41;;;;;;;4.03;2.10;;;;;;;;;;4974210;28;20445;-66
2022/04/02 15:06:14;;;;;;;3.65;1.83;;;;;;;;;;4974237;28;20501;-66
2022/04/02 15:08:52;;;;;;;3.95;2.08;;;;;;;;;;4973777;28;20026;-66
2022/04/02 15:11:21;;;;;;;5.88;2.10;;;;;;;;;;4974159;28;20033;-67
2022/04/02 15:14:02;;;;;;;3.28;2.20;;;;;;;;;;4973561;28;20031;-66
2022/04/02 15:16:30;;;;;;;3.88;2.22;;;;;;;;;;4973970;28;20113;-66